Terminal Aerodrome Forecast
Issued by NWS

Home | Current Version | Previous Version | Graphics & Text | Print | Product List | Glossary On
Versions: 1 2 3 4 5 6 7 8 9 10 11 12 13 14 15 16 17
000
FTUS41 KCLE 160500
TAFFDY
TAF
KFDY 160540Z 1606/1706 09010KT P6SM BKN150
     FM161000 14010KT P6SM SCT060 OVC100
      TEMPO 1611/1614 6SM -SHRA BKN040 OVC080
     FM161500 17012KT P6SM OVC028
     FM162000 18010KT P6SM BKN015 OVC025=

USA.gov is the U.S. government's official web portal to all federal, state and local government web resources and services.